Time;durP1;ratioP1;P1;durP2;ratioP2;P2;SDS_P1;SDS_P2;PMS_P1;PMS_P2;Temp;Humidity;BMP_temperature;BMP_pressure;BME280_temperature;BME280_humidity;BME280_pressure;Samples;Min_cycle;Max_cycle;Signal;HPM_P1;HPM_P2
2024/01/11 00:01:49;;;;;;;58.10;38.13;;;2.00;99.90;;;;;;5092581;28;20109;-61
2024/01/11 00:04:15;;;;;;;98.90;52.85;;;2.00;99.90;;;;;;5092510;28;20024;-61
2024/01/11 00:06:44;;;;;;;68.30;41.53;;;2.00;99.90;;;;;;5092593;28;20085;-61
2024/01/11 00:09:09;;;;;;;66.13;41.53;;;2.00;99.90;;;;;;5092353;28;20044;-61
2024/01/11 00:11:35;;;;;;;93.25;47.80;;;2.00;99.90;;;;;;5092373;28;20441;-61
2024/01/11 00:14:01;;;;;;;68.93;40.78;;;2.00;99.90;;;;;;5092116;28;20024;-61
2024/01/11 00:16:26;;;;;;;69.10;39.47;;;1.90;99.90;;;;;;5092255;28;20051;-62
2024/01/11 00:18:52;;;;;;;39.17;26.52;;;1.90;99.90;;;;;;5092319;28;20382;-61
2024/01/11 00:21:18;;;;;;;32.63;23.33;;;1.90;99.90;;;;;;5092686;28;20082;-61
2024/01/11 00:23:43;;;;;;;27.52;21.27;;;2.00;99.90;;;;;;5092155;28;20024;-61
2024/01/11 00:26:12;;;;;;;28.65;20.67;;;1.90;99.90;;;;;;5092276;28;20024;-61
2024/01/11 00:28:38;;;;;;;30.90;24.92;;;2.00;99.90;;;;;;5091932;28;20028;-61
2024/01/11 00:31:04;;;;;;;38.28;28.42;;;2.00;99.90;;;;;;5092267;28;20508;-62
2024/01/11 00:33:30;;;;;;;81.20;42.22;;;2.00;99.90;;;;;;5092171;28;20028;-61
2024/01/11 00:35:56;;;;;;;55.50;33.92;;;2.00;99.90;;;;;;5092256;28;20514;-61
2024/01/11 00:38:21;;;;;;;40.45;28.13;;;2.00;99.90;;;;;;5092119;28;20028;-61
2024/01/11 00:40:47;;;;;;;33.75;23.88;;;2.00;99.90;;;;;;5091912;28;20069;-61
2024/01/11 00:43:13;;;;;;;30.55;21.92;;;2.00;99.90;;;;;;5092017;28;20028;-61
2024/01/11 00:45:38;;;;;;;30.42;21.15;;;2.00;99.90;;;;;;5091888;28;20048;-62
2024/01/11 00:48:05;;;;;;;28.63;21.13;;;2.00;99.90;;;;;;5091848;28;20520;-61
2024/01/11 00:50:31;;;;;;;30.02;23.00;;;2.00;99.90;;;;;;5092044;28;20099;-61
2024/01/11 00:52:57;;;;;;;43.97;30.88;;;2.00;99.90;;;;;;5090993;28;20062;-61
2024/01/11 00:55:24;;;;;;;48.67;31.48;;;2.00;99.90;;;;;;5091813;28;20032;-61
2024/01/11 00:57:50;;;;;;;48.03;31.48;;;2.00;99.90;;;;;;5091436;28;20111;-61
2024/01/11 01:00:16;;;;;;;42.33;28.83;;;2.00;99.90;;;;;;5091825;28;20031;-61
2024/01/11 01:02:42;;;;;;;39.25;27.33;;;1.90;99.90;;;;;;5091981;28;20028;-61
2024/01/11 01:05:08;;;;;;;31.65;22.90;;;2.00;99.90;;;;;;5091902;28;20024;-61
2024/01/11 01:07:34;;;;;;;29.90;21.77;;;2.00;99.90;;;;;;5092018;28;20038;-61
2024/01/11 01:09:59;;;;;;;29.67;21.30;;;2.00;99.90;;;;;;5091910;28;20095;-61
2024/01/11 01:12:25;;;;;;;28.60;20.90;;;2.00;99.90;;;;;;5091377;28;20031;-61
2024/01/11 01:14:51;;;;;;;28.25;20.63;;;2.00;99.90;;;;;;5090104;28;20487;-61
2024/01/11 01:17:17;;;;;;;31.10;21.38;;;1.90;99.90;;;;;;5092093;28;20074;-61
2024/01/11 01:19:44;;;;;;;31.52;22.55;;;2.10;99.90;;;;;;5091633;28;20028;-61
2024/01/11 01:22:09;;;;;;;30.90;22.45;;;2.30;99.90;;;;;;5091574;28;20071;-61
2024/01/11 01:24:35;;;;;;;29.77;21.90;;;2.50;99.90;;;;;;5091536;28;20490;-61
2024/01/11 01:27:00;;;;;;;30.92;22.40;;;2.70;99.90;;;;;;5093562;28;20036;-61
2024/01/11 01:29:27;;;;;;;26.85;21.75;;;2.90;99.90;;;;;;5095446;28;20098;-61
2024/01/11 01:31:52;;;;;;;28.50;22.00;;;3.10;99.90;;;;;;5095223;28;20443;-61
2024/01/11 01:34:19;;;;;;;53.00;33.03;;;3.00;99.90;;;;;;5095499;28;20103;-61
2024/01/11 01:36:44;;;;;;;42.63;28.88;;;3.00;99.90;;;;;;5095172;28;20065;-61
2024/01/11 01:39:11;;;;;;;40.65;29.55;;;2.80;99.90;;;;;;5094914;28;20016;-61
2024/01/11 01:41:37;;;;;;;40.03;30.42;;;2.70;99.90;;;;;;5094974;28;20039;-61
2024/01/11 01:44:02;;;;;;;36.15;27.23;;;2.50;99.90;;;;;;5095292;28;20103;-61
2024/01/11 01:46:28;;;;;;;33.75;24.83;;;2.50;99.90;;;;;;5095280;28;20048;-61
2024/01/11 01:48:57;;;;;;;36.83;28.33;;;2.40;99.90;;;;;;5095032;28;20032;-61
2024/01/11 01:51:24;;;;;;;34.80;25.02;;;2.30;99.90;;;;;;5095019;28;20108;-61
2024/01/11 01:53:52;;;;;;;110.68;63.47;;;2.30;99.90;;;;;;5094851;28;20441;-61
2024/01/11 01:56:19;;;;;;;88.45;53.83;;;2.30;99.90;;;;;;5094775;28;20046;-61
2024/01/11 01:58:45;;;;;;;49.80;31.85;;;2.20;99.90;;;;;;5095272;28;20024;-61
2024/01/11 02:01:12;;;;;;;36.10;25.20;;;2.20;99.90;;;;;;5094986;28;20482;-61
2024/01/11 02:03:38;;;;;;;30.60;23.13;;;2.10;99.90;;;;;;5094732;28;20052;-61
2024/01/11 02:06:05;;;;;;;31.20;23.58;;;2.10;99.90;;;;;;5094856;28;20054;-61
2024/01/11 02:08:31;;;;;;;33.08;23.65;;;2.10;99.90;;;;;;5094338;28;20378;-61
2024/01/11 02:11:00;;;;;;;34.08;24.52;;;2.10;99.90;;;;;;5094942;28;20448;-61
2024/01/11 02:13:25;;;;;;;29.30;23.48;;;2.20;99.90;;;;;;5094627;28;20110;-61
2024/01/11 02:15:51;;;;;;;30.35;22.92;;;2.10;99.90;;;;;;5094533;28;20119;-62
2024/01/11 02:18:17;;;;;;;29.30;21.45;;;2.10;99.90;;;;;;5094407;28;20129;-62
2024/01/11 02:20:43;;;;;;;28.58;21.60;;;2.10;99.90;;;;;;5094458;28;20500;-61
2024/01/11 02:23:19;;;;;;;32.58;24.38;;;2.10;99.90;;;;;;5094067;28;20020;-62
2024/01/11 02:25:45;;;;;;;34.45;24.10;;;2.10;99.90;;;;;;5094802;28;20031;-62
2024/01/11 02:28:11;;;;;;;34.70;24.13;;;2.10;99.90;;;;;;5094312;28;20024;-62
2024/01/11 02:30:37;;;;;;;33.67;24.33;;;2.10;99.90;;;;;;5094320;28;20032;-62
2024/01/11 02:33:04;;;;;;;50.67;35.60;;;2.10;99.90;;;;;;5093979;28;20505;-62
2024/01/11 02:35:31;;;;;;;53.53;36.80;;;2.10;99.90;;;;;;5094389;28;20509;-62
2024/01/11 02:37:57;;;;;;;61.72;38.20;;;2.10;99.90;;;;;;5093708;28;20024;-62
2024/01/11 02:40:23;;;;;;;79.43;54.60;;;2.10;99.90;;;;;;5093810;28;20028;-61
2024/01/11 02:42:49;;;;;;;69.28;44.22;;;2.10;99.90;;;;;;5094351;28;20028;-61
2024/01/11 02:45:14;;;;;;;70.50;46.92;;;2.10;99.90;;;;;;5093914;28;20093;-62
2024/01/11 02:47:40;;;;;;;77.63;48.53;;;2.10;99.90;;;;;;5093937;28;20039;-62
2024/01/11 02:50:07;;;;;;;71.10;48.60;;;2.10;99.90;;;;;;5093812;28;20023;-62
2024/01/11 02:52:33;;;;;;;60.95;41.17;;;2.10;99.90;;;;;;5093279;28;20036;-61
2024/01/11 02:54:59;;;;;;;40.70;29.65;;;2.10;99.90;;;;;;5094074;28;20456;-62
2024/01/11 02:57:24;;;;;;;42.30;29.33;;;2.10;99.90;;;;;;5093743;28;20112;-61
2024/01/11 02:59:51;;;;;;;91.05;59.38;;;2.10;99.90;;;;;;5093628;28;20052;-62
2024/01/11 03:02:17;;;;;;;95.78;64.43;;;2.10;99.90;;;;;;5093602;28;20171;-61
2024/01/11 03:04:42;;;;;;;59.72;43.38;;;2.10;99.90;;;;;;5093511;28;20443;-61
2024/01/11 03:07:08;;;;;;;51.20;35.95;;;2.20;99.90;;;;;;5093734;28;20028;-62
2024/01/11 03:09:34;;;;;;;60.28;40.30;;;2.20;99.90;;;;;;5093625;28;20033;-61
2024/01/11 03:12:00;;;;;;;46.38;32.55;;;2.20;99.90;;;;;;5093471;28;20486;-61
2024/01/11 03:14:26;;;;;;;40.63;29.33;;;2.20;99.90;;;;;;5093434;28;20024;-61
2024/01/11 03:16:51;;;;;;;33.10;24.95;;;2.10;99.90;;;;;;5093274;28;20026;-62
2024/01/11 03:19:17;;;;;;;42.03;29.88;;;2.20;99.90;;;;;;5093356;28;20371;-62
2024/01/11 03:21:43;;;;;;;47.17;33.83;;;2.20;99.90;;;;;;5093051;28;20032;-62
2024/01/11 03:24:09;;;;;;;116.07;69.82;;;2.10;99.90;;;;;;5093477;28;20455;-62
2024/01/11 03:26:35;;;;;;;86.03;55.10;;;2.10;99.90;;;;;;5093242;28;20107;-61
2024/01/11 03:29:01;;;;;;;104.82;62.88;;;2.10;99.90;;;;;;5093498;28;20047;-62
2024/01/11 03:31:26;;;;;;;68.70;44.70;;;2.10;99.90;;;;;;5092959;28;20478;-61
2024/01/11 03:33:52;;;;;;;56.45;37.08;;;2.10;99.90;;;;;;5093069;28;20431;-62
2024/01/11 03:36:18;;;;;;;111.18;64.65;;;2.10;99.90;;;;;;5093119;28;20499;-61
2024/01/11 03:38:43;;;;;;;101.75;58.85;;;2.10;99.90;;;;;;5092958;28;20028;-61
2024/01/11 03:41:09;;;;;;;111.28;61.13;;;2.10;99.90;;;;;;5092841;28;20055;-61
2024/01/11 03:43:36;;;;;;;108.57;59.90;;;2.10;99.90;;;;;;5093311;28;20089;-61
2024/01/11 03:46:02;;;;;;;87.07;49.95;;;2.10;99.90;;;;;;5092760;28;20032;-61
2024/01/11 03:48:27;;;;;;;75.80;41.55;;;2.10;99.90;;;;;;5092904;28;20032;-61
2024/01/11 03:50:53;;;;;;;61.83;35.30;;;2.10;99.90;;;;;;5091998;28;20069;-61
2024/01/11 03:53:18;;;;;;;38.42;27.02;;;2.30;99.90;;;;;;5092819;28;20090;-61
2024/01/11 03:55:44;;;;;;;37.55;25.95;;;2.60;99.90;;;;;;5092711;28;20035;-61
2024/01/11 03:58:10;;;;;;;39.58;30.48;;;2.80;99.90;;;;;;5092654;28;20436;-61
2024/01/11 04:00:35;;;;;;;52.25;35.70;;;2.90;99.90;;;;;;5092593;28;20074;-61
2024/01/11 04:03:02;;;;;;;56.65;37.95;;;3.00;99.90;;;;;;5092482;28;20397;-61
2024/01/11 04:05:27;;;;;;;39.80;28.38;;;3.10;99.90;;;;;;5092658;28;20027;-61
2024/01/11 04:07:53;;;;;;;37.20;28.88;;;3.10;99.90;;;;;;5092518;28;20028;-61
2024/01/11 04:10:19;;;;;;;30.17;24.23;;;3.10;99.90;;;;;;5092520;28;20090;-61
2024/01/11 04:12:44;;;;;;;34.28;26.85;;;2.90;99.90;;;;;;5092762;28;20051;-61
2024/01/11 04:15:13;;;;;;;27.08;21.08;;;2.70;99.90;;;;;;5092282;28;20032;-61
2024/01/11 04:17:40;;;;;;;26.48;20.02;;;2.60;99.90;;;;;;5092077;28;20032;-61
2024/01/11 04:20:08;;;;;;;26.15;20.20;;;2.50;99.90;;;;;;5092439;28;20012;-61
2024/01/11 04:22:34;;;;;;;35.78;26.80;;;2.50;99.90;;;;;;5092329;28;20035;-61
2024/01/11 04:25:00;;;;;;;44.80;32.40;;;2.40;99.90;;;;;;5092424;28;20024;-62
2024/01/11 04:27:26;;;;;;;43.05;32.50;;;2.40;99.90;;;;;;5092292;28;20505;-61
2024/01/11 04:29:51;;;;;;;39.63;31.05;;;2.30;99.90;;;;;;5092361;28;20032;-61
2024/01/11 04:32:17;;;;;;;40.72;29.58;;;2.30;99.90;;;;;;5092177;28;20137;-61
2024/01/11 04:34:43;;;;;;;40.45;28.63;;;2.30;99.90;;;;;;5091821;28;20459;-61
2024/01/11 04:37:09;;;;;;;37.72;27.73;;;2.30;99.90;;;;;;5092964;28;20150;-61
2024/01/11 04:39:34;;;;;;;39.08;27.70;;;2.20;99.90;;;;;;5092081;28;20153;-61
2024/01/11 04:42:03;;;;;;;37.97;28.73;;;2.20;99.90;;;;;;5091986;28;20032;-61
2024/01/11 04:44:29;;;;;;;40.42;29.58;;;2.20;99.90;;;;;;5091838;28;20477;-61
2024/01/11 04:46:54;;;;;;;34.22;26.05;;;2.20;99.90;;;;;;5092199;28;20055;-61
2024/01/11 04:49:20;;;;;;;37.53;27.45;;;2.20;99.90;;;;;;5091846;28;20137;-61
2024/01/11 04:51:46;;;;;;;34.97;26.35;;;2.20;99.90;;;;;;5092030;28;20020;-61
2024/01/11 04:54:11;;;;;;;32.30;23.75;;;2.20;99.90;;;;;;5091947;28;20110;-61
2024/01/11 04:56:37;;;;;;;33.83;24.52;;;2.10;99.90;;;;;;5091913;28;20398;-61
2024/01/11 04:59:02;;;;;;;34.70;24.35;;;2.20;99.90;;;;;;5092118;28;20542;-61
2024/01/11 05:01:28;;;;;;;31.15;22.80;;;2.20;99.90;;;;;;5093406;28;20024;-61
2024/01/11 05:03:54;;;;;;;28.92;21.95;;;2.20;99.90;;;;;;5095672;28;20436;-61
2024/01/11 05:06:21;;;;;;;27.10;21.17;;;2.20;99.90;;;;;;5095897;28;20028;-61
2024/01/11 05:08:49;;;;;;;30.92;24.20;;;2.20;99.90;;;;;;5095891;28;20030;-61
2024/01/11 05:11:23;;;;;;;42.25;27.10;;;2.20;99.90;;;;;;5095931;28;20028;-61
2024/01/11 05:13:50;;;;;;;73.25;37.25;;;2.20;99.90;;;;;;5095717;28;20028;-61
2024/01/11 05:16:27;;;;;;;42.97;25.77;;;2.20;99.90;;;;;;5095645;28;20114;-61
2024/01/11 05:18:55;;;;;;;33.20;22.27;;;2.20;99.90;;;;;;5095757;28;20031;-61
2024/01/11 05:21:21;;;;;;;46.33;27.45;;;2.20;99.90;;;;;;5095610;28;20025;-61
2024/01/11 05:23:48;;;;;;;63.08;34.15;;;2.20;99.90;;;;;;5095546;28;20333;-61
2024/01/11 05:26:15;;;;;;;63.75;33.97;;;2.20;99.90;;;;;;5095553;28;20119;-61
2024/01/11 05:28:40;;;;;;;54.10;31.05;;;2.10;99.90;;;;;;5095430;28;20091;-61
2024/01/11 05:31:10;;;;;;;33.08;23.13;;;2.10;99.90;;;;;;5095564;28;20107;-61
2024/01/11 05:33:36;;;;;;;35.20;23.35;;;2.10;99.90;;;;;;5095740;28;20016;-61
2024/01/11 05:36:02;;;;;;;33.35;24.13;;;2.10;99.90;;;;;;5095451;28;20039;-61
2024/01/11 05:38:28;;;;;;;29.30;21.40;;;2.20;99.90;;;;;;5095385;28;20401;-61
2024/01/11 05:40:54;;;;;;;32.47;23.00;;;2.20;99.90;;;;;;5095124;28;20073;-60
2024/01/11 05:43:20;;;;;;;34.72;24.73;;;2.20;99.90;;;;;;5095167;28;20435;-61
2024/01/11 05:45:45;;;;;;;32.65;23.60;;;2.20;99.90;;;;;;5095244;28;20544;-61
2024/01/11 05:48:11;;;;;;;31.75;23.33;;;2.20;99.90;;;;;;5095105;28;20028;-61
2024/01/11 05:50:37;;;;;;;31.80;23.40;;;2.20;99.90;;;;;;5095209;28;20032;-61
2024/01/11 05:53:03;;;;;;;35.67;24.55;;;2.20;99.90;;;;;;5095374;28;20062;-61
2024/01/11 05:55:28;;;;;;;52.40;33.75;;;2.20;99.90;;;;;;5095007;28;20039;-61
2024/01/11 05:57:54;;;;;;;50.20;32.88;;;2.20;99.90;;;;;;5094872;28;20390;-61
2024/01/11 06:00:20;;;;;;;72.35;43.15;;;2.20;99.90;;;;;;5094986;28;20502;-61
2024/01/11 06:02:46;;;;;;;62.30;39.05;;;2.20;99.90;;;;;;5094742;28;20394;-61
2024/01/11 06:05:15;;;;;;;60.88;38.63;;;2.20;99.90;;;;;;5094901;28;20050;-61
2024/01/11 06:07:40;;;;;;;49.20;34.55;;;2.20;99.90;;;;;;5095136;28;20149;-61
2024/01/11 06:10:08;;;;;;;54.65;38.28;;;2.20;99.90;;;;;;5094728;28;20453;-61
2024/01/11 06:12:34;;;;;;;48.95;34.88;;;2.20;99.90;;;;;;5094073;28;20163;-61
2024/01/11 06:15:01;;;;;;;48.53;35.72;;;2.20;99.90;;;;;;5094316;28;20490;-61
2024/01/11 06:17:27;;;;;;;43.30;31.40;;;2.20;99.90;;;;;;5094669;28;20035;-61
2024/01/11 06:19:52;;;;;;;32.88;24.52;;;2.20;99.90;;;;;;5094820;28;20024;-61
2024/01/11 06:22:18;;;;;;;35.25;26.45;;;2.30;99.90;;;;;;5094418;28;20032;-61
2024/01/11 06:24:44;;;;;;;38.45;29.50;;;2.60;99.90;;;;;;5094797;28;20035;-61
2024/01/11 06:27:10;;;;;;;64.55;45.50;;;2.80;99.90;;;;;;5094318;28;20030;-61
2024/01/11 06:29:35;;;;;;;60.65;42.95;;;2.90;99.90;;;;;;5094050;28;20027;-61
2024/01/11 06:32:02;;;;;;;45.40;31.83;;;3.10;99.90;;;;;;5094204;28;20020;-61
2024/01/11 06:34:28;;;;;;;41.60;29.58;;;3.20;99.90;;;;;;5094157;28;20115;-61
2024/01/11 06:36:54;;;;;;;40.97;30.00;;;3.30;99.90;;;;;;5094632;28;20035;-61
2024/01/11 06:39:20;;;;;;;45.55;30.35;;;3.20;99.90;;;;;;5094138;28;20020;-61
2024/01/11 06:41:45;;;;;;;39.75;28.60;;;3.10;99.90;;;;;;5093953;28;20040;-61
2024/01/11 06:44:11;;;;;;;37.17;27.15;;;2.90;99.90;;;;;;5093664;28;20016;-60
2024/01/11 06:46:39;;;;;;;36.55;27.90;;;2.80;99.90;;;;;;5093973;28;20403;-61
2024/01/11 06:49:05;;;;;;;48.20;31.67;;;2.70;99.90;;;;;;5094412;28;20394;-61
2024/01/11 06:51:30;;;;;;;46.25;32.15;;;2.60;99.90;;;;;;5093895;28;20024;-61
2024/01/11 06:53:56;;;;;;;60.75;39.30;;;2.60;99.90;;;;;;5093664;28;20054;-61
2024/01/11 06:56:21;;;;;;;63.95;40.65;;;2.50;99.90;;;;;;5093517;28;20067;-61
2024/01/11 06:58:48;;;;;;;88.32;50.85;;;2.50;99.90;;;;;;5093461;28;20538;-61
2024/01/11 07:01:13;;;;;;;137.07;76.38;;;2.50;99.90;;;;;;5093585;28;20402;-61
2024/01/11 07:03:39;;;;;;;120.93;79.57;;;2.50;99.90;;;;;;5093559;28;20020;-61
2024/01/11 07:06:06;;;;;;;109.25;73.95;;;2.50;99.90;;;;;;5093956;28;20027;-61
2024/01/11 07:08:35;;;;;;;82.65;62.80;;;2.40;99.90;;;;;;5093456;28;20032;-61
2024/01/11 07:11:03;;;;;;;68.22;51.78;;;2.40;99.90;;;;;;5093937;28;20016;-60
2024/01/11 07:13:29;;;;;;;61.65;44.58;;;2.40;99.90;;;;;;5093115;28;20492;-61
2024/01/11 07:15:57;;;;;;;73.50;48.67;;;2.40;99.90;;;;;;5093281;28;20036;-60
2024/01/11 07:18:22;;;;;;;62.95;42.40;;;2.40;99.90;;;;;;5093282;28;20020;-61
2024/01/11 07:20:48;;;;;;;54.13;36.67;;;2.40;99.90;;;;;;5093137;28;20490;-61
2024/01/11 07:23:14;;;;;;;39.88;27.48;;;2.40;99.90;;;;;;5092843;28;20095;-61
2024/01/11 07:25:41;;;;;;;38.33;26.17;;;2.50;99.90;;;;;;5092599;28;20102;-61
2024/01/11 07:28:07;;;;;;;37.65;25.35;;;2.50;99.90;;;;;;5093132;28;20390;-61
2024/01/11 07:30:33;;;;;;;36.50;25.23;;;2.60;99.90;;;;;;5093297;28;20055;-61
2024/01/11 07:32:58;;;;;;;35.63;26.10;;;2.50;99.90;;;;;;5092954;28;20039;-61
2024/01/11 07:35:24;;;;;;;40.00;28.80;;;2.50;99.90;;;;;;5093045;28;20020;-61
2024/01/11 07:37:50;;;;;;;41.63;29.67;;;2.40;99.90;;;;;;5093318;28;20043;-61
2024/01/11 07:40:16;;;;;;;42.58;32.28;;;2.40;99.90;;;;;;5092860;28;20027;-62
2024/01/11 07:42:42;;;;;;;44.30;32.83;;;2.40;99.90;;;;;;5092470;28;20589;-61
2024/01/11 07:45:12;;;;;;;44.58;33.40;;;2.40;99.90;;;;;;5092575;28;20036;-62
2024/01/11 07:47:38;;;;;;;44.67;32.72;;;2.50;99.90;;;;;;5092826;28;20560;-63
2024/01/11 07:50:12;;;;;;;40.83;29.25;;;2.40;99.90;;;;;;5092818;28;20486;-62
2024/01/11 07:52:38;;;;;;;49.28;35.05;;;2.50;99.90;;;;;;5092467;28;20020;-62
2024/01/11 07:55:07;;;;;;;53.67;36.22;;;2.50;99.90;;;;;;5092816;28;20127;-63
2024/01/11 07:57:36;;;;;;;46.50;33.42;;;2.50;99.90;;;;;;5092374;28;20467;-63
2024/01/11 08:00:06;;;;;;;44.95;31.23;;;2.40;99.90;;;;;;5092706;28;20032;-62
2024/01/11 08:02:32;;;;;;;55.90;39.03;;;2.40;99.90;;;;;;5092580;28;20490;-63
2024/01/11 08:04:59;;;;;;;57.50;39.97;;;2.50;99.90;;;;;;5092601;28;20470;-63
2024/01/11 08:07:28;;;;;;;58.08;40.08;;;2.40;99.90;;;;;;5084323;28;20091;-63
2024/01/11 08:09:54;;;;;;;66.88;43.22;;;2.40;99.90;;;;;;5079318;28;20569;-62
2024/01/11 08:12:19;;;;;;;59.42;39.90;;;2.40;99.90;;;;;;5071578;28;20103;-62
2024/01/11 08:14:46;;;;;;;48.30;34.10;;;2.40;99.90;;;;;;5078278;28;20406;-63
2024/01/11 08:17:15;;;;;;;42.13;29.73;;;2.40;99.90;;;;;;5092438;28;20032;-62
2024/01/11 08:19:44;;;;;;;45.10;31.30;;;2.50;99.90;;;;;;5092337;28;20089;-63
2024/01/11 08:22:11;;;;;;;46.53;31.73;;;2.40;99.90;;;;;;5092112;28;20125;-63
2024/01/11 08:24:37;;;;;;;44.10;30.30;;;2.40;99.90;;;;;;5092703;28;20031;-63
2024/01/11 08:27:04;;;;;;;42.10;29.50;;;2.40;99.90;;;;;;5092038;28;20390;-62
2024/01/11 08:29:29;;;;;;;42.15;28.73;;;2.50;99.90;;;;;;5092117;28;20012;-62
2024/01/11 08:31:56;;;;;;;41.00;28.60;;;2.50;99.90;;;;;;5092100;28;20330;-62
2024/01/11 08:34:22;;;;;;;40.17;27.50;;;2.50;99.90;;;;;;5091984;28;20077;-62
2024/01/11 08:36:47;;;;;;;37.28;26.67;;;2.50;99.90;;;;;;5091966;28;20040;-62
2024/01/11 08:39:14;;;;;;;43.67;30.35;;;2.60;99.90;;;;;;5092198;28;20028;-62
2024/01/11 08:41:40;;;;;;;45.65;31.33;;;2.60;99.90;;;;;;5091390;28;20028;-62
2024/01/11 08:44:06;;;;;;;44.80;28.70;;;2.60;99.90;;;;;;5092049;28;20040;-62
2024/01/11 08:46:34;;;;;;;43.83;30.50;;;2.60;99.90;;;;;;5091942;28;20127;-63
2024/01/11 08:49:03;;;;;;;43.67;30.20;;;2.70;99.90;;;;;;5091982;28;20036;-62
2024/01/11 08:51:29;;;;;;;41.30;28.13;;;3.10;99.90;;;;;;5088341;28;20043;-62
2024/01/11 08:53:55;;;;;;;36.47;26.50;;;3.20;99.90;;;;;;5089179;28;20028;-62
2024/01/11 08:56:21;;;;;;;36.50;25.75;;;3.40;99.90;;;;;;5091522;28;20037;-62
2024/01/11 08:58:48;;;;;;;37.80;26.77;;;3.50;99.90;;;;;;5091809;28;20478;-62
2024/01/11 09:01:14;;;;;;;37.05;26.05;;;3.60;99.90;;;;;;5091723;28;20040;-62
2024/01/11 09:03:40;;;;;;;35.10;25.48;;;3.70;99.90;;;;;;5092125;28;20398;-62
2024/01/11 09:06:06;;;;;;;37.83;26.63;;;3.70;99.90;;;;;;5092004;28;20028;-62
2024/01/11 09:08:31;;;;;;;35.65;25.30;;;3.50;99.90;;;;;;5092026;28;20478;-62
2024/01/11 09:11:00;;;;;;;37.08;26.38;;;3.30;99.90;;;;;;5091455;28;20421;-62
2024/01/11 09:13:27;;;;;;;39.72;27.40;;;3.30;99.90;;;;;;5091717;28;20099;-62
2024/01/11 09:15:54;;;;;;;38.95;27.50;;;3.20;99.90;;;;;;5091819;28;20412;-62
2024/01/11 09:18:20;;;;;;;43.78;29.67;;;3.10;99.90;;;;;;5091824;28;20023;-62
2024/01/11 09:20:47;;;;;;;43.70;28.63;;;3.00;99.90;;;;;;5091717;28;20048;-62
2024/01/11 09:23:13;;;;;;;41.65;28.33;;;2.90;99.90;;;;;;5091284;28;20070;-62
2024/01/11 09:25:39;;;;;;;42.92;29.30;;;2.90;99.90;;;;;;5091875;28;20110;-62
2024/01/11 09:28:05;;;;;;;53.95;36.03;;;2.90;99.90;;;;;;5092000;28;20129;-62
2024/01/11 09:30:31;;;;;;;54.97;37.78;;;2.90;99.90;;;;;;5091411;28;20036;-62
2024/01/11 09:32:57;;;;;;;49.60;34.40;;;3.00;99.90;;;;;;5091950;28;20038;-62
2024/01/11 09:35:23;;;;;;;46.92;32.13;;;3.00;99.90;;;;;;5091526;28;20119;-62
2024/01/11 09:37:52;;;;;;;42.28;29.67;;;3.00;99.90;;;;;;5091322;28;20024;-62
2024/01/11 09:40:18;;;;;;;40.50;29.00;;;2.90;99.90;;;;;;5091578;28;20020;-62
2024/01/11 09:42:44;;;;;;;42.53;29.67;;;2.90;99.90;;;;;;5091798;28;20072;-63
2024/01/11 09:45:15;;;;;;;43.05;29.33;;;2.90;99.90;;;;;;5091556;28;20510;-62
2024/01/11 09:47:42;;;;;;;49.67;32.60;;;3.00;99.90;;;;;;5092880;28;20111;-62
2024/01/11 09:50:08;;;;;;;48.72;31.15;;;3.00;99.90;;;;;;5095622;28;20020;-63
2024/01/11 09:52:34;;;;;;;53.40;34.63;;;3.00;99.90;;;;;;5094747;28;20031;-63
2024/01/11 09:55:01;;;;;;;47.95;33.10;;;3.00;99.90;;;;;;5095141;28;20497;-63
2024/01/11 09:57:30;;;;;;;41.83;29.67;;;3.00;99.90;;;;;;5094346;28;20039;-63
2024/01/11 09:59:57;;;;;;;44.22;30.42;;;3.00;99.90;;;;;;5094824;28;20147;-63
2024/01/11 10:02:29;;;;;;;42.70;31.00;;;3.00;99.90;;;;;;5094748;28;20036;-63
2024/01/11 10:04:55;;;;;;;57.13;39.17;;;3.00;99.90;;;;;;5094673;28;20081;-62
2024/01/11 10:07:27;;;;;;;62.60;41.67;;;3.00;99.90;;;;;;5094144;28;20101;-62
2024/01/11 10:09:53;;;;;;;66.28;43.85;;;3.00;99.90;;;;;;5093163;28;20386;-62
2024/01/11 10:12:20;;;;;;;61.60;40.58;;;3.10;99.90;;;;;;5095011;28;20028;-62
2024/01/11 10:14:47;;;;;;;49.28;34.80;;;3.10;99.90;;;;;;5094588;28;20020;-62
2024/01/11 10:17:12;;;;;;;46.92;32.20;;;3.10;99.90;;;;;;5094581;28;20059;-62
2024/01/11 10:19:38;;;;;;;57.65;39.70;;;3.10;99.90;;;;;;5094531;28;20051;-61
2024/01/11 10:22:04;;;;;;;55.13;37.30;;;3.20;99.90;;;;;;5094177;28;20035;-61
2024/01/11 10:24:30;;;;;;;49.97;34.85;;;3.20;99.90;;;;;;5094938;28;20099;-61
2024/01/11 10:26:57;;;;;;;48.75;33.83;;;3.20;99.90;;;;;;5094551;28;20103;-61
2024/01/11 10:29:23;;;;;;;48.13;33.15;;;3.30;99.90;;;;;;5094252;28;20032;-62
2024/01/11 10:31:50;;;;;;;51.15;35.97;;;3.30;99.90;;;;;;5094503;28;20108;-62
2024/01/11 10:34:16;;;;;;;59.58;39.70;;;3.30;99.90;;;;;;5093994;28;20494;-61
2024/01/11 10:36:42;;;;;;;60.30;40.97;;;3.40;99.90;;;;;;5093828;28;20046;-61
2024/01/11 10:39:10;;;;;;;56.05;39.33;;;3.40;99.90;;;;;;5094102;28;20043;-61
2024/01/11 10:41:43;;;;;;;52.38;37.17;;;3.50;99.90;;;;;;5093861;28;20028;-62
2024/01/11 10:44:23;;;;;;;55.97;37.95;;;3.40;99.90;;;;;;5094134;28;20390;-62
2024/01/11 10:46:50;;;;;;;49.38;33.28;;;3.40;99.90;;;;;;5094056;28;20168;-62
2024/01/11 10:49:19;;;;;;;57.58;41.47;;;3.40;99.90;;;;;;5093851;28;20024;-62
2024/01/11 10:51:53;;;;;;;55.25;40.17;;;3.70;99.90;;;;;;5093584;28;20013;-62
2024/01/11 10:54:21;;;;;;;48.97;36.95;;;4.10;99.90;;;;;;5093872;28;20032;-62
2024/01/11 10:56:48;;;;;;;50.95;37.90;;;4.20;99.90;;;;;;5093903;28;20101;-62
2024/01/11 10:59:14;;;;;;;42.15;31.88;;;4.30;99.90;;;;;;5094244;28;20470;-62
2024/01/11 11:01:41;;;;;;;55.78;41.53;;;4.40;99.90;;;;;;5093509;28;20031;-62
2024/01/11 11:04:09;;;;;;;46.38;35.90;;;4.60;99.90;;;;;;5093893;28;20066;-61
2024/01/11 11:06:36;;;;;;;48.75;36.55;;;4.60;99.90;;;;;;5092900;28;20089;-61
2024/01/11 11:09:03;;;;;;;47.20;35.25;;;4.60;99.90;;;;;;5093965;28;20517;-61
2024/01/11 11:11:31;;;;;;;42.92;32.63;;;4.50;99.90;;;;;;5093307;28;20044;-61
2024/01/11 11:14:01;;;;;;;48.67;36.78;;;4.40;99.90;;;;;;5093390;28;20020;-60
2024/01/11 11:16:27;;;;;;;52.50;37.25;;;4.30;99.90;;;;;;5091130;28;20051;-61
2024/01/11 11:18:54;;;;;;;97.30;63.53;;;4.20;99.90;;;;;;5088153;28;20082;-61
2024/01/11 11:21:21;;;;;;;70.38;47.03;;;4.20;99.90;;;;;;5092988;28;20485;-61
2024/01/11 11:23:46;;;;;;;59.05;40.40;;;4.10;99.90;;;;;;5093264;28;20016;-61
2024/01/11 11:26:17;;;;;;;59.28;41.20;;;4.10;99.90;;;;;;5090842;28;20039;-61
2024/01/11 11:28:43;;;;;;;60.67;40.10;;;4.10;99.90;;;;;;5081533;28;20036;-61
2024/01/11 11:31:14;;;;;;;57.80;40.28;;;4.10;99.90;;;;;;5083219;28;20032;-61
2024/01/11 11:33:40;;;;;;;60.15;40.72;;;4.00;99.90;;;;;;5092813;28;20449;-61
2024/01/11 11:36:12;;;;;;;58.63;40.88;;;4.10;99.90;;;;;;5093198;28;20036;-62
2024/01/11 11:38:38;;;;;;;64.78;41.97;;;4.10;99.90;;;;;;5093076;28;20624;-61
2024/01/11 11:41:04;;;;;;;64.20;42.03;;;4.10;99.90;;;;;;5092688;28;20085;-61
2024/01/11 11:43:31;;;;;;;73.25;46.85;;;4.10;99.90;;;;;;5092680;28;20028;-62
2024/01/11 11:45:58;;;;;;;74.20;45.30;;;4.10;99.90;;;;;;5092611;28;20071;-61
2024/01/11 11:48:32;;;;;;;66.07;42.70;;;4.20;99.90;;;;;;5092803;28;20020;-61
2024/01/11 11:51:11;;;;;;;63.28;43.03;;;4.20;99.90;;;;;;5085218;28;20048;-61
2024/01/11 11:53:38;;;;;;;60.30;40.75;;;4.20;99.90;;;;;;5072093;28;20025;-61
2024/01/11 11:56:05;;;;;;;59.28;38.47;;;4.10;99.90;;;;;;5072775;28;20040;-61
2024/01/11 11:58:32;;;;;;;58.10;39.55;;;4.00;99.90;;;;;;5072343;28;20436;-60
2024/01/11 12:00:59;;;;;;;57.33;38.60;;;3.90;99.90;;;;;;5072321;28;20036;-61
2024/01/11 12:03:38;;;;;;;59.17;40.05;;;3.90;99.90;;;;;;5071700;28;20025;-61
2024/01/11 12:06:08;;;;;;;65.90;42.92;;;3.90;99.90;;;;;;5072150;28;20024;-61
2024/01/11 12:08:37;;;;;;;74.80;49.15;;;3.90;99.90;;;;;;5072525;28;20031;-61
2024/01/11 12:11:05;;;;;;;68.82;46.10;;;3.90;99.90;;;;;;5071723;28;20483;-61
2024/01/11 12:13:32;;;;;;;69.28;42.70;;;4.00;99.90;;;;;;5071862;28;20059;-61
2024/01/11 12:15:58;;;;;;;64.20;44.17;;;4.00;99.90;;;;;;5072099;28;20037;-61
2024/01/11 12:18:23;;;;;;;63.33;44.03;;;4.00;99.90;;;;;;5071766;28;20425;-61
2024/01/11 12:20:51;;;;;;;68.60;46.10;;;4.00;99.90;;;;;;5071780;28;20023;-61
2024/01/11 12:23:17;;;;;;;87.57;54.55;;;4.00;99.90;;;;;;5071973;28;20109;-61
2024/01/11 12:25:43;;;;;;;75.20;51.25;;;4.10;99.90;;;;;;5071646;28;20032;-61
2024/01/11 12:28:09;;;;;;;68.20;46.28;;;4.10;99.90;;;;;;5071693;28;20029;-61
2024/01/11 12:30:35;;;;;;;59.90;42.85;;;4.10;99.90;;;;;;5071832;28;20096;-61
2024/01/11 12:33:01;;;;;;;56.90;40.28;;;4.10;99.90;;;;;;5071668;28;20526;-61